createdAt,value
2019-01-14T00:00:21.965Z,7.53
2019-01-14T00:01:21.948Z,7.58
2019-01-14T00:02:21.947Z,7.58
2019-01-14T00:03:21.964Z,7.54
2019-01-14T00:04:21.938Z,7.50
2019-01-14T00:05:21.912Z,7.53
2019-01-14T00:06:21.901Z,7.58
2019-01-14T00:07:21.917Z,7.53
2019-01-14T00:08:21.886Z,7.61
2019-01-14T00:09:23.251Z,7.66
2019-01-14T00:10:21.860Z,7.67
2019-01-14T00:11:21.850Z,7.58
2019-01-14T00:12:21.837Z,7.57
2019-01-14T00:13:21.841Z,7.60
2019-01-14T00:14:21.866Z,7.66
2019-01-14T00:15:21.810Z,7.63
2019-01-14T00:16:21.796Z,7.57
2019-01-14T00:17:21.787Z,7.50
2019-01-14T00:18:21.771Z,7.51
2019-01-14T00:19:21.762Z,7.50
2019-01-14T00:20:21.772Z,7.43
2019-01-14T00:21:21.825Z,7.43
2019-01-14T00:22:21.766Z,7.50
2019-01-14T00:23:21.725Z,7.42
2019-01-14T00:24:21.726Z,7.36
2019-01-14T00:25:21.733Z,7.43
2019-01-14T00:26:21.695Z,7.33
2019-01-14T00:27:21.708Z,7.18
2019-01-14T00:28:21.676Z,7.15
2019-01-14T00:29:21.669Z,6.99
2019-01-14T00:30:21.641Z,6.95
2019-01-14T00:31:21.630Z,6.89
2019-01-14T00:32:21.628Z,6.92
2019-01-14T00:33:21.637Z,6.87
2019-01-14T00:34:21.605Z,6.79
2019-01-14T00:35:21.596Z,6.79
2019-01-14T00:36:21.608Z,6.75
2019-01-14T00:37:21.607Z,6.66
2019-01-14T00:38:21.588Z,6.79
2019-01-14T00:39:21.552Z,6.77
2019-01-14T00:40:21.549Z,6.79
2019-01-14T00:41:21.549Z,6.75
2019-01-14T00:42:21.521Z,6.72
2019-01-14T00:43:21.513Z,6.69
2019-01-14T00:44:21.517Z,6.79
2019-01-14T00:45:21.486Z,6.74
2019-01-14T00:46:21.533Z,6.74
2019-01-14T00:47:21.474Z,6.78
2019-01-14T00:48:21.478Z,6.75
2019-01-14T00:49:21.482Z,6.81
2019-01-14T00:50:21.441Z,6.87
2019-01-14T00:51:21.424Z,6.92
2019-01-14T00:52:21.415Z,6.81
2019-01-14T00:53:21.405Z,6.85
2019-01-14T00:54:21.398Z,6.96
2019-01-14T00:55:21.426Z,6.89
2019-01-14T00:56:21.374Z,6.97
2019-01-14T00:57:21.363Z,7.02
2019-01-14T00:58:21.350Z,7.00
2019-01-14T00:59:21.338Z,6.97
2019-01-14T01:00:21.336Z,6.96
2019-01-14T01:01:21.362Z,7.02
2019-01-14T01:02:21.313Z,6.88
2019-01-14T01:03:21.304Z,6.84
2019-01-14T01:04:21.281Z,6.85
2019-01-14T01:05:21.297Z,6.92
2019-01-14T01:06:24.764Z,6.96
2019-01-14T01:07:21.273Z,6.97
2019-01-14T01:08:21.242Z,6.96
2019-01-14T01:09:21.233Z,7.00
2019-01-14T01:10:21.242Z,7.03
2019-01-14T01:11:21.209Z,6.97
2019-01-14T01:12:21.212Z,7.03
2019-01-14T01:13:21.187Z,6.99
2019-01-14T01:14:21.237Z,6.99
2019-01-14T01:15:21.176Z,7.02
2019-01-14T01:16:21.159Z,7.00
2019-01-14T01:17:21.145Z,7.00
2019-01-14T01:18:21.140Z,6.95
2019-01-14T01:19:21.127Z,6.95
2019-01-14T01:20:21.150Z,6.85
2019-01-14T01:21:21.111Z,6.96
2019-01-14T01:22:21.098Z,6.95
2019-01-14T01:23:21.083Z,6.88
2019-01-14T01:24:21.071Z,6.92
2019-01-14T01:25:21.058Z,6.95
2019-01-14T01:26:21.077Z,6.96
2019-01-14T01:27:21.071Z,6.99
2019-01-14T01:28:21.036Z,6.89
2019-01-14T01:29:21.023Z,6.97
2019-01-14T01:30:21.018Z,6.99
2019-01-14T01:31:21.001Z,6.96
2019-01-14T01:32:21.035Z,6.87
2019-01-14T01:33:20.992Z,6.84
2019-01-14T01:34:20.964Z,6.88
2019-01-14T01:35:20.954Z,6.92
2019-01-14T01:36:20.944Z,6.87
2019-01-14T01:37:20.938Z,6.85
2019-01-14T01:38:20.970Z,6.85
2019-01-14T01:39:20.924Z,6.85
2019-01-14T01:40:20.914Z,6.78
2019-01-14T01:41:20.911Z,6.88
2019-01-14T01:42:20.890Z,6.82
2019-01-14T01:43:20.869Z,6.89
2019-01-14T01:44:20.888Z,6.88
2019-01-14T01:45:20.879Z,6.87
2019-01-14T01:46:20.848Z,6.87
2019-01-14T01:47:20.845Z,6.84
2019-01-14T01:48:20.813Z,6.89
2019-01-14T01:49:20.839Z,6.87
2019-01-14T01:50:20.799Z,6.79
2019-01-14T01:51:20.798Z,6.82
2019-01-14T01:52:20.778Z,6.78
2019-01-14T01:53:20.772Z,6.84
2019-01-14T01:54:20.793Z,6.82
2019-01-14T01:55:20.751Z,6.78
2019-01-14T01:56:20.746Z,6.69
2019-01-14T01:57:20.724Z,6.70
2019-01-14T01:58:20.721Z,6.69
2019-01-14T01:59:20.746Z,6.64
2019-01-14T02:00:20.705Z,6.62
2019-01-14T02:01:29.903Z,6.49
2019-01-14T02:02:29.951Z,6.51
2019-01-14T02:03:20.658Z,6.42
2019-01-14T02:04:20.643Z,6.63
2019-01-14T02:05:20.658Z,6.51
2019-01-14T02:06:20.626Z,6.70
2019-01-14T02:07:20.612Z,6.69
2019-01-14T02:08:20.602Z,6.52
2019-01-14T02:09:20.614Z,6.51
2019-01-14T02:10:20.585Z,6.66
2019-01-14T02:11:20.575Z,6.57
2019-01-14T02:12:20.554Z,6.62
2019-01-14T02:13:20.541Z,6.67
2019-01-14T02:14:20.559Z,6.64
2019-01-14T02:15:20.540Z,6.66
2019-01-14T02:16:20.514Z,6.66
2019-01-14T02:17:20.502Z,6.78
2019-01-14T02:18:20.500Z,6.62
2019-01-14T02:19:20.510Z,6.63
2019-01-14T02:20:20.519Z,6.64
2019-01-14T02:21:20.466Z,6.60
2019-01-14T02:22:20.453Z,6.66
2019-01-14T02:23:20.434Z,6.63
2019-01-14T02:24:20.425Z,6.64
2019-01-14T02:25:20.425Z,6.51
2019-01-14T02:26:20.488Z,6.62
2019-01-14T02:27:20.404Z,6.49
2019-01-14T02:28:20.394Z,6.57
2019-01-14T02:29:20.402Z,6.60
2019-01-14T02:30:20.362Z,6.56
2019-01-14T02:31:20.350Z,6.67
2019-01-14T02:32:20.351Z,6.62
2019-01-14T02:33:20.347Z,6.64
2019-01-14T02:34:20.356Z,6.67
2019-01-14T02:35:20.312Z,6.63
2019-01-14T02:36:20.296Z,6.64
2019-01-14T02:37:20.286Z,6.67
2019-01-14T02:38:20.279Z,6.64
2019-01-14T02:39:20.274Z,6.70
2019-01-14T02:40:20.289Z,6.63
2019-01-14T02:41:20.253Z,6.64
2019-01-14T02:42:20.231Z,6.67
2019-01-14T02:43:20.257Z,6.63
2019-01-14T02:44:20.219Z,6.67
2019-01-14T02:45:20.207Z,6.72
2019-01-14T02:46:20.194Z,6.74
2019-01-14T02:47:20.197Z,6.69
2019-01-14T02:48:20.166Z,6.79
2019-01-14T02:49:20.196Z,6.66
2019-01-14T02:50:20.157Z,6.64
2019-01-14T02:51:20.144Z,6.63
2019-01-14T02:52:20.130Z,6.67
2019-01-14T02:53:20.126Z,6.64
2019-01-14T02:54:20.150Z,6.62
2019-01-14T02:55:20.091Z,6.72
2019-01-14T02:56:20.077Z,6.66
2019-01-14T02:57:20.069Z,6.70
2019-01-14T02:58:20.065Z,6.66
2019-01-14T02:59:20.069Z,6.69
2019-01-14T03:00:20.070Z,6.60
2019-01-14T03:01:20.030Z,6.60
2019-01-14T03:02:20.020Z,6.63
2019-01-14T03:03:20.004Z,6.67
2019-01-14T03:04:20.017Z,6.66
2019-01-14T03:05:19.986Z,6.63
2019-01-14T03:06:19.977Z,6.64
2019-01-14T03:07:19.968Z,6.56
2019-01-14T03:08:19.959Z,6.59
2019-01-14T03:09:19.978Z,6.64
2019-01-14T03:10:19.938Z,6.72
2019-01-14T03:11:19.922Z,6.64
2019-01-14T03:12:19.920Z,6.60
2019-01-14T03:13:19.903Z,6.63
2019-01-14T03:14:19.897Z,6.49
2019-01-14T03:15:19.904Z,6.57
2019-01-14T03:16:19.893Z,6.56
2019-01-14T03:17:19.874Z,6.62
2019-01-14T03:18:19.845Z,6.60
2019-01-14T03:19:19.854Z,6.66
2019-01-14T03:20:19.864Z,6.64
2019-01-14T03:21:19.824Z,6.60
2019-01-14T03:22:19.808Z,6.62
2019-01-14T03:23:19.818Z,6.56
2019-01-14T03:24:19.780Z,6.49
2019-01-14T03:25:19.779Z,6.63
2019-01-14T03:26:19.803Z,6.56
2019-01-14T03:27:19.760Z,6.52
2019-01-14T03:28:19.757Z,6.59
2019-01-14T03:29:19.736Z,6.56
2019-01-14T03:30:19.815Z,6.62
2019-01-14T03:31:19.709Z,6.60
2019-01-14T03:32:19.719Z,6.59
2019-01-14T03:33:19.689Z,6.62
2019-01-14T03:34:19.686Z,6.64
2019-01-14T03:35:19.675Z,6.59
2019-01-14T03:36:19.652Z,6.51
2019-01-14T03:37:19.671Z,6.51
2019-01-14T03:38:19.660Z,6.51
2019-01-14T03:39:19.631Z,6.38
2019-01-14T03:40:19.623Z,6.42
2019-01-14T03:41:19.606Z,6.39
2019-01-14T03:42:19.588Z,6.48
2019-01-14T03:43:19.601Z,6.41
2019-01-14T03:44:19.568Z,6.42
2019-01-14T03:45:19.556Z,6.52
2019-01-14T03:46:19.554Z,6.48
2019-01-14T03:47:19.547Z,6.36
2019-01-14T03:48:19.552Z,6.44
2019-01-14T03:49:19.526Z,6.44
2019-01-14T03:50:19.504Z,6.39
2019-01-14T03:51:19.493Z,6.41
2019-01-14T03:52:19.497Z,6.33
2019-01-14T03:53:19.498Z,6.22
2019-01-14T03:54:19.490Z,6.28
2019-01-14T03:55:19.463Z,6.24
2019-01-14T03:56:19.438Z,6.26
2019-01-14T03:57:19.441Z,6.27
2019-01-14T03:58:19.428Z,6.28
2019-01-14T03:59:19.448Z,6.22
2019-01-14T04:00:19.405Z,6.27
2019-01-14T04:01:19.392Z,6.22
2019-01-14T04:02:19.374Z,6.20
2019-01-14T04:03:19.377Z,6.19
2019-01-14T04:04:19.356Z,6.24
2019-01-14T04:05:19.363Z,6.12
2019-01-14T04:06:19.336Z,6.16
2019-01-14T04:07:19.334Z,6.12
2019-01-14T04:08:19.309Z,6.08
2019-01-14T04:09:19.299Z,6.17
2019-01-14T04:10:19.314Z,6.07
2019-01-14T04:11:19.291Z,6.14
2019-01-14T04:12:19.272Z,6.11
2019-01-14T04:13:19.262Z,6.20
2019-01-14T04:14:19.246Z,6.20
2019-01-14T04:15:19.257Z,6.20
2019-01-14T04:16:19.230Z,6.09
2019-01-14T04:17:19.245Z,6.11
2019-01-14T04:18:19.211Z,6.14
2019-01-14T04:19:19.197Z,6.04
2019-01-14T04:20:19.223Z,6.09
2019-01-14T04:21:19.191Z,5.99
2019-01-14T04:22:19.170Z,6.11
2019-01-14T04:23:19.172Z,5.99
2019-01-14T04:24:19.146Z,6.02
2019-01-14T04:25:19.154Z,5.99
2019-01-14T04:26:19.120Z,6.02
2019-01-14T04:27:19.107Z,5.98
2019-01-14T04:28:19.099Z,5.89
2019-01-14T04:29:19.104Z,6.05
2019-01-14T04:30:19.076Z,5.93
2019-01-14T04:31:19.067Z,5.97
2019-01-14T04:32:19.063Z,5.94
2019-01-14T04:33:19.047Z,5.89
2019-01-14T04:34:19.051Z,5.84
2019-01-14T04:35:19.026Z,5.83
2019-01-14T04:36:19.006Z,5.91
2019-01-14T04:37:21.728Z,5.90
2019-01-14T04:38:18.996Z,5.87
2019-01-14T04:39:19.016Z,5.87
2019-01-14T04:40:18.963Z,5.86
2019-01-14T04:41:18.950Z,5.73
2019-01-14T04:42:18.946Z,5.75
2019-01-14T04:43:18.967Z,5.72
2019-01-14T04:44:18.923Z,5.64
2019-01-14T04:45:18.945Z,5.59
2019-01-14T04:46:18.900Z,5.51
2019-01-14T04:47:18.893Z,5.53
2019-01-14T04:48:18.879Z,5.47
2019-01-14T04:49:18.873Z,5.51
2019-01-14T04:50:18.885Z,5.46
2019-01-14T04:51:18.850Z,5.36
2019-01-14T04:52:18.868Z,5.38
2019-01-14T04:53:18.832Z,5.33
2019-01-14T04:54:18.813Z,5.39
2019-01-14T04:55:18.801Z,5.29
2019-01-14T04:56:18.797Z,5.29
2019-01-14T04:57:18.785Z,5.26
2019-01-14T04:58:18.795Z,5.20
2019-01-14T04:59:18.772Z,5.18
2019-01-14T05:00:18.750Z,5.18
2019-01-14T05:01:18.741Z,5.15
2019-01-14T05:02:26.823Z,5.21
2019-01-14T05:03:18.747Z,5.17
2019-01-14T05:04:18.711Z,5.15
2019-01-14T05:05:18.707Z,5.15
2019-01-14T05:06:18.685Z,5.14
2019-01-14T05:07:18.675Z,5.12
2019-01-14T05:08:18.699Z,5.12
2019-01-14T05:09:18.659Z,5.17
2019-01-14T05:10:18.652Z,5.18
2019-01-14T05:11:18.633Z,5.15
2019-01-14T05:12:18.638Z,5.15
2019-01-14T05:13:18.637Z,5.15
2019-01-14T05:14:18.632Z,5.14
2019-01-14T05:15:18.597Z,5.20
2019-01-14T05:16:18.583Z,5.18
2019-01-14T05:17:18.572Z,5.21
2019-01-14T05:18:18.568Z,5.14
2019-01-14T05:19:18.575Z,5.08
2019-01-14T05:20:18.620Z,5.18
2019-01-14T05:21:18.595Z,5.14
2019-01-14T05:22:18.537Z,5.08
2019-01-14T05:23:18.541Z,5.07
2019-01-14T05:24:18.529Z,5.07
2019-01-14T05:25:18.483Z,5.07
2019-01-14T05:26:18.491Z,5.14
2019-01-14T05:27:18.488Z,5.17
2019-01-14T05:28:18.454Z,5.15
2019-01-14T05:29:18.447Z,5.25
2019-01-14T05:30:18.463Z,5.25
2019-01-14T05:31:18.422Z,5.26
2019-01-14T05:32:18.418Z,5.28
2019-01-14T05:33:18.410Z,5.21
2019-01-14T05:34:18.397Z,5.29
2019-01-14T05:35:18.393Z,5.39
2019-01-14T05:36:18.401Z,5.33
2019-01-14T05:37:18.358Z,5.36
2019-01-14T05:38:18.349Z,5.39
2019-01-14T05:39:18.341Z,5.36
2019-01-14T05:40:18.335Z,5.46
2019-01-14T05:41:18.350Z,5.51
2019-01-14T05:42:18.318Z,5.51
2019-01-14T05:43:18.307Z,5.44
2019-01-14T05:44:18.289Z,5.50
2019-01-14T05:45:18.288Z,5.51
2019-01-14T05:46:18.292Z,5.51
2019-01-14T05:47:18.266Z,5.50
2019-01-14T05:48:18.241Z,5.41
2019-01-14T05:49:18.235Z,5.41
2019-01-14T05:50:18.224Z,5.50
2019-01-14T05:51:18.244Z,5.39
2019-01-14T05:52:18.206Z,5.36
2019-01-14T05:53:18.197Z,5.38
2019-01-14T05:54:18.199Z,5.38
2019-01-14T05:55:18.178Z,5.33
2019-01-14T05:56:18.166Z,5.23
2019-01-14T05:57:18.171Z,5.36
2019-01-14T05:58:18.151Z,5.29
2019-01-14T05:59:18.157Z,5.30
2019-01-14T06:00:18.122Z,5.32
2019-01-14T06:01:18.105Z,5.33
2019-01-14T06:02:18.130Z,5.35
2019-01-14T06:03:18.086Z,5.28
2019-01-14T06:04:18.103Z,5.28
2019-01-14T06:05:18.073Z,5.35
2019-01-14T06:06:18.067Z,5.30
2019-01-14T06:07:18.049Z,5.33
2019-01-14T06:08:18.033Z,5.23
2019-01-14T06:09:18.044Z,5.28
2019-01-14T06:10:18.013Z,5.25
2019-01-14T06:11:18.020Z,5.28
2019-01-14T06:12:17.996Z,5.28
2019-01-14T06:13:17.987Z,5.21
2019-01-14T06:14:17.985Z,5.25
2019-01-14T06:15:17.965Z,5.21
2019-01-14T06:16:18.463Z,5.23
2019-01-14T06:17:17.968Z,5.28
2019-01-14T06:18:17.988Z,5.17
2019-01-14T06:19:17.922Z,5.20
2019-01-14T06:20:17.928Z,5.12
2019-01-14T06:21:17.920Z,5.17
2019-01-14T06:22:17.883Z,4.94
2019-01-14T06:23:17.877Z,5.07
2019-01-14T06:24:17.874Z,5.02
2019-01-14T06:25:17.867Z,5.05
2019-01-14T06:26:17.884Z,4.92
2019-01-14T06:27:17.843Z,5.00
2019-01-14T06:28:17.821Z,5.00
2019-01-14T06:29:17.815Z,5.05
2019-01-14T06:30:17.808Z,4.94
2019-01-14T06:31:17.798Z,5.02
2019-01-14T06:32:17.810Z,5.08
2019-01-14T06:33:17.772Z,5.07
2019-01-14T06:34:17.762Z,5.07
2019-01-14T06:35:17.751Z,5.11
2019-01-14T06:36:17.778Z,5.07
2019-01-14T06:37:17.736Z,5.07
2019-01-14T06:38:17.755Z,5.04
2019-01-14T06:39:17.715Z,5.05
2019-01-14T06:40:17.708Z,5.05
2019-01-14T06:41:17.697Z,4.96
2019-01-14T06:42:17.676Z,4.97
2019-01-14T06:43:17.673Z,4.94
2019-01-14T06:44:17.685Z,4.93
2019-01-14T06:45:17.653Z,4.96
2019-01-14T06:46:17.633Z,4.90
2019-01-14T06:47:17.629Z,4.80
2019-01-14T06:48:17.652Z,4.80
2019-01-14T06:49:17.612Z,4.74
2019-01-14T06:50:17.606Z,4.80
2019-01-14T06:51:17.588Z,4.77
2019-01-14T06:52:17.571Z,4.80
2019-01-14T06:53:17.570Z,4.74
2019-01-14T06:54:17.576Z,4.74
2019-01-14T06:55:17.562Z,4.63
2019-01-14T06:56:17.573Z,4.49
2019-01-14T06:57:17.524Z,4.38
2019-01-14T06:58:17.522Z,4.38
2019-01-14T06:59:17.505Z,4.38
2019-01-14T07:00:17.491Z,4.38
2019-01-14T07:01:17.490Z,4.42
2019-01-14T07:02:17.494Z,4.40
2019-01-14T07:03:17.462Z,4.45
2019-01-14T07:04:17.447Z,4.35
2019-01-14T07:05:17.456Z,4.40
2019-01-14T07:06:17.425Z,4.34
2019-01-14T07:07:17.451Z,4.37
2019-01-14T07:08:17.417Z,4.30
2019-01-14T07:09:17.428Z,4.32
2019-01-14T07:10:17.415Z,4.28
2019-01-14T07:11:17.382Z,4.16
2019-01-14T07:12:17.365Z,4.24
2019-01-14T07:13:17.362Z,4.13
2019-01-14T07:14:17.371Z,4.14
2019-01-14T07:15:17.367Z,4.14
2019-01-14T07:16:17.327Z,4.17
2019-01-14T07:17:17.316Z,4.20
2019-01-14T07:18:17.337Z,4.28
2019-01-14T07:19:17.293Z,4.19
2019-01-14T07:20:17.285Z,4.16
2019-01-14T07:21:17.276Z,4.24
2019-01-14T07:22:17.267Z,4.12
2019-01-14T07:23:17.257Z,4.30
2019-01-14T07:24:17.271Z,4.30
2019-01-14T07:25:17.226Z,4.28
2019-01-14T07:26:17.214Z,4.38
2019-01-14T07:27:17.206Z,4.38
2019-01-14T07:28:17.201Z,4.35
2019-01-14T07:29:17.191Z,4.41
2019-01-14T07:30:17.202Z,4.45
2019-01-14T07:31:17.171Z,4.49
2019-01-14T07:32:17.153Z,4.53
2019-01-14T07:33:17.164Z,4.53
2019-01-14T07:34:17.159Z,4.59
2019-01-14T07:35:17.128Z,4.60
2019-01-14T07:36:17.154Z,4.66
2019-01-14T07:37:17.102Z,4.59
2019-01-14T07:38:17.093Z,4.70
2019-01-14T07:39:17.101Z,4.66
2019-01-14T07:40:17.078Z,4.63
2019-01-14T07:41:17.153Z,4.60
2019-01-14T07:42:17.056Z,4.73
2019-01-14T07:43:17.045Z,4.66
2019-01-14T07:44:17.027Z,4.77
2019-01-14T07:45:17.035Z,4.78
2019-01-14T07:46:17.012Z,4.71
2019-01-14T07:47:17.001Z,4.77
2019-01-14T07:48:16.993Z,4.84
2019-01-14T07:49:16.984Z,4.70
2019-01-14T07:50:16.996Z,4.74
2019-01-14T07:51:16.969Z,4.62
2019-01-14T07:52:16.949Z,4.68
2019-01-14T07:53:16.976Z,4.78
2019-01-14T07:54:16.936Z,4.77
2019-01-14T07:55:16.917Z,4.75
2019-01-14T07:56:16.905Z,4.77
2019-01-14T07:57:17.534Z,4.73
2019-01-14T07:58:16.879Z,4.78
2019-01-14T07:59:16.892Z,4.75
2019-01-14T08:00:16.867Z,4.82
2019-01-14T08:01:16.855Z,4.94
2019-01-14T08:02:16.868Z,4.93
2019-01-14T08:03:16.834Z,5.07
2019-01-14T08:04:16.820Z,5.05
2019-01-14T08:05:16.832Z,5.04
2019-01-14T08:06:16.805Z,5.08
2019-01-14T08:07:16.794Z,5.12
2019-01-14T08:08:16.776Z,5.10
2019-01-14T08:09:16.770Z,5.18
2019-01-14T08:10:16.776Z,5.11
2019-01-14T08:11:16.777Z,5.11
2019-01-14T08:12:16.740Z,5.10
2019-01-14T08:13:16.730Z,5.07
2019-01-14T08:14:16.719Z,5.11
2019-01-14T08:15:16.707Z,5.10
2019-01-14T08:16:16.698Z,5.14
2019-01-14T08:17:16.714Z,5.17
2019-01-14T08:18:16.673Z,5.20
2019-01-14T08:19:16.662Z,5.29
2019-01-14T08:20:16.661Z,5.23
2019-01-14T08:21:16.647Z,5.32
2019-01-14T08:22:16.628Z,5.30
2019-01-14T08:23:16.643Z,5.23
2019-01-14T08:24:16.624Z,5.26
2019-01-14T08:25:16.604Z,5.38
2019-01-14T08:26:16.688Z,5.38
2019-01-14T08:27:16.613Z,5.43
2019-01-14T08:28:16.563Z,5.51
2019-01-14T08:29:16.564Z,5.57
2019-01-14T08:30:16.549Z,5.71
2019-01-14T08:31:16.531Z,5.64
2019-01-14T08:32:16.527Z,5.64
2019-01-14T08:33:16.539Z,5.66
2019-01-14T08:34:16.506Z,5.68
2019-01-14T08:35:16.511Z,5.71
2019-01-14T08:36:16.481Z,5.71
2019-01-14T08:37:16.553Z,5.76
2019-01-14T08:38:21.192Z,5.91
2019-01-14T08:39:16.460Z,5.90
2019-01-14T08:40:16.460Z,5.91
2019-01-14T08:41:16.426Z,6.05
2019-01-14T08:42:16.429Z,6.38
2019-01-14T08:43:16.411Z,6.63
2019-01-14T08:44:16.409Z,6.77
2019-01-14T08:45:16.424Z,6.95
2019-01-14T08:46:16.381Z,6.95
2019-01-14T08:47:16.391Z,7.07
2019-01-14T08:48:16.354Z,7.38
2019-01-14T08:49:16.343Z,7.79
2019-01-14T08:50:16.327Z,7.95
2019-01-14T08:51:16.374Z,7.95
2019-01-14T08:52:16.311Z,7.88
2019-01-14T08:53:16.304Z,7.77
2019-01-14T08:54:16.291Z,7.51
2019-01-14T08:55:16.274Z,7.40
2019-01-14T08:56:16.304Z,7.53
2019-01-14T08:57:16.263Z,7.93
2019-01-14T08:58:16.269Z,8.33
2019-01-14T08:59:16.243Z,8.79
2019-01-14T09:00:16.223Z,9.34
2019-01-14T09:01:16.212Z,9.74
2019-01-14T09:02:16.241Z,9.89
2019-01-14T09:03:16.196Z,10.28
2019-01-14T09:04:16.183Z,10.42
2019-01-14T09:05:16.181Z,10.44
2019-01-14T09:06:16.183Z,10.12
2019-01-14T09:07:16.152Z,9.98
2019-01-14T09:08:16.161Z,9.74
2019-01-14T09:09:16.134Z,9.76
2019-01-14T09:10:16.125Z,9.73
2019-01-14T09:11:16.116Z,9.68
2019-01-14T09:12:16.131Z,9.43
2019-01-14T09:13:16.109Z,9.44
2019-01-14T09:14:16.076Z,9.55
2019-01-14T09:15:16.088Z,9.76
2019-01-14T09:16:16.060Z,10.23
2019-01-14T09:17:16.048Z,10.67
2019-01-14T09:18:16.033Z,10.71
2019-01-14T09:19:16.023Z,10.81
2019-01-14T09:20:16.006Z,10.57
2019-01-14T09:21:16.020Z,10.49
2019-01-14T09:22:15.983Z,10.31
2019-01-14T09:23:15.994Z,10.57
2019-01-14T09:24:15.972Z,10.79
2019-01-14T09:25:15.963Z,10.84
2019-01-14T09:26:15.942Z,10.56
2019-01-14T09:27:15.929Z,10.49
2019-01-14T09:28:16.010Z,10.23
2019-01-14T09:29:15.920Z,10.02
2019-01-14T09:30:15.910Z,10.20
2019-01-14T09:31:15.915Z,10.72
2019-01-14T09:32:15.878Z,10.97
2019-01-14T09:33:15.892Z,11.23
2019-01-14T09:34:15.862Z,10.84
2019-01-14T09:35:15.848Z,10.53
2019-01-14T09:36:15.839Z,10.15
2019-01-14T09:37:15.863Z,9.98
2019-01-14T09:38:15.820Z,9.87
2019-01-14T09:39:15.812Z,9.98
2019-01-14T09:40:15.793Z,10.33
2019-01-14T09:41:15.781Z,10.99
2019-01-14T09:42:15.776Z,11.57
2019-01-14T09:43:15.802Z,12.12
2019-01-14T09:44:15.756Z,12.83
2019-01-14T09:45:15.738Z,13.59
2019-01-14T09:46:15.726Z,13.60
2019-01-14T09:47:15.739Z,14.23
2019-01-14T09:48:15.712Z,14.82
2019-01-14T09:49:15.752Z,15.22
2019-01-14T09:50:15.693Z,15.35
2019-01-14T09:51:15.695Z,15.91
2019-01-14T09:52:15.666Z,16.31
2019-01-14T09:53:15.652Z,16.49
2019-01-14T09:54:15.681Z,16.93
2019-01-14T09:55:15.635Z,16.94
2019-01-14T09:56:15.632Z,16.54
2019-01-14T09:57:15.615Z,16.46
2019-01-14T09:58:15.603Z,16.24
2019-01-14T09:59:15.590Z,16.00
2019-01-14T10:00:15.619Z,15.46
2019-01-14T10:01:15.572Z,14.47
2019-01-14T10:02:15.559Z,14.05
2019-01-14T10:03:15.553Z,13.83
2019-01-14T10:04:15.534Z,13.56
2019-01-14T10:05:15.526Z,13.47
2019-01-14T10:06:15.539Z,13.09
2019-01-14T10:07:15.531Z,12.72
2019-01-14T10:08:15.512Z,12.39
2019-01-14T10:09:15.486Z,12.07
2019-01-14T10:10:15.481Z,11.90
2019-01-14T10:11:15.489Z,11.62
2019-01-14T10:12:15.448Z,11.40
2019-01-14T10:13:15.440Z,11.27
2019-01-14T10:14:15.489Z,10.90
2019-01-14T10:15:15.419Z,10.76
2019-01-14T10:16:15.460Z,10.72
2019-01-14T10:17:15.393Z,10.19
2019-01-14T10:18:15.421Z,10.10
2019-01-14T10:19:15.374Z,10.02
2019-01-14T10:20:15.399Z,10.04
2019-01-14T10:21:15.357Z,9.97
2019-01-14T10:22:15.590Z,9.99
2019-01-14T10:23:15.339Z,10.01
2019-01-14T10:24:15.367Z,10.13
2019-01-14T10:25:15.314Z,10.12
2019-01-14T10:26:16.258Z,10.10
2019-01-14T10:27:15.301Z,10.10
2019-01-14T10:28:15.308Z,9.99
2019-01-14T10:29:15.281Z,9.98
2019-01-14T10:30:15.261Z,9.83
2019-01-14T10:31:19.789Z,10.01
2019-01-14T10:32:15.243Z,9.94
2019-01-14T10:33:15.275Z,10.23
2019-01-14T10:34:15.224Z,10.12
2019-01-14T10:35:15.210Z,9.86
2019-01-14T10:36:15.191Z,9.46
2019-01-14T10:37:15.212Z,9.04
2019-01-14T10:38:15.190Z,8.85
2019-01-14T10:39:15.181Z,9.08
2019-01-14T10:40:15.192Z,9.29
2019-01-14T10:41:15.149Z,9.40
2019-01-14T10:42:15.133Z,9.56
2019-01-14T10:43:15.129Z,9.65
2019-01-14T10:44:15.136Z,10.01
2019-01-14T10:45:15.105Z,10.10
2019-01-14T10:46:15.097Z,10.09
2019-01-14T10:47:15.079Z,10.30
2019-01-14T10:48:15.068Z,10.38
2019-01-14T10:49:15.072Z,10.12
2019-01-14T10:50:15.042Z,10.20
2019-01-14T10:51:15.035Z,10.23
2019-01-14T10:52:15.026Z,10.23
2019-01-14T10:53:15.024Z,10.13
2019-01-14T10:54:15.029Z,10.10
2019-01-14T10:55:14.992Z,10.04
2019-01-14T10:56:14.976Z,9.61
2019-01-14T10:57:14.966Z,9.48
2019-01-14T10:58:14.984Z,9.23
2019-01-14T10:59:14.969Z,9.31
2019-01-14T11:00:14.944Z,9.19
2019-01-14T11:01:14.927Z,9.19
2019-01-14T11:02:14.921Z,9.11
2019-01-14T11:03:15.520Z,8.87
2019-01-14T11:04:15.103Z,8.92
2019-01-14T11:05:14.900Z,8.64
2019-01-14T11:06:15.104Z,8.79
2019-01-14T11:07:15.215Z,8.97
2019-01-14T11:08:14.865Z,8.95
2019-01-14T11:09:15.040Z,8.89
2019-01-14T11:10:14.825Z,8.88
2019-01-14T11:11:14.815Z,8.76
2019-01-14T11:12:14.818Z,8.60
2019-01-14T11:13:14.800Z,8.44
2019-01-14T11:14:14.789Z,8.49
2019-01-14T11:15:14.820Z,8.42
2019-01-14T11:16:14.793Z,8.30
2019-01-14T11:18:32.382Z,8.27
2019-01-14T11:19:32.329Z,8.34
2019-01-14T11:20:32.375Z,8.41
2019-01-14T11:21:32.340Z,8.31
2019-01-14T11:22:32.301Z,8.18
2019-01-14T11:23:32.304Z,8.27
2019-01-14T11:24:32.287Z,8.37
2019-01-14T11:25:32.274Z,8.33
2019-01-14T11:26:32.270Z,8.27
2019-01-14T11:27:32.270Z,8.38
2019-01-14T11:28:32.244Z,8.26
2019-01-14T11:29:32.237Z,8.15
2019-01-14T11:30:32.226Z,8.10
2019-01-14T11:31:32.253Z,8.09
2019-01-14T11:32:32.214Z,8.08
2019-01-14T11:33:32.267Z,7.82
2019-01-14T11:34:32.218Z,7.82
2019-01-14T11:35:32.182Z,7.76
2019-01-14T11:36:32.169Z,7.70
2019-01-14T11:37:32.183Z,7.63
2019-01-14T11:38:32.188Z,7.54
2019-01-14T11:39:32.126Z,7.83
2019-01-14T11:40:32.131Z,7.82
2019-01-14T11:41:32.141Z,7.82
2019-01-14T11:42:32.097Z,7.72
2019-01-14T11:43:32.093Z,7.57
2019-01-14T11:44:32.105Z,7.50
2019-01-14T11:45:32.078Z,7.51
2019-01-14T11:46:32.069Z,7.48
2019-01-14T11:47:32.050Z,7.38
2019-01-14T11:48:32.038Z,7.21
2019-01-14T11:49:32.068Z,7.10
2019-01-14T11:50:32.059Z,6.97
2019-01-14T11:51:32.008Z,6.99
2019-01-14T11:52:31.999Z,7.02
2019-01-14T11:53:31.980Z,6.93
2019-01-14T11:54:31.998Z,6.88
2019-01-14T11:55:31.991Z,6.87
2019-01-14T11:56:31.952Z,6.81
2019-01-14T11:57:31.944Z,6.81
2019-01-14T11:58:31.939Z,6.75
2019-01-14T11:59:31.918Z,6.78
2019-01-14T12:00:36.571Z,6.79
2019-01-14T12:01:32.890Z,6.77
2019-01-14T12:02:31.905Z,6.77
2019-01-14T12:03:31.882Z,6.69
2019-01-14T12:04:31.876Z,6.64
2019-01-14T12:05:31.850Z,6.57
2019-01-14T12:06:31.885Z,6.59
2019-01-14T12:07:31.854Z,6.66
2019-01-14T12:08:31.823Z,6.57
2019-01-14T12:09:31.842Z,6.57
2019-01-14T12:10:31.806Z,6.57
2019-01-14T12:11:31.811Z,6.51
2019-01-14T12:12:31.810Z,6.54
2019-01-14T12:13:31.795Z,6.45
2019-01-14T12:14:31.753Z,6.41
2019-01-14T12:15:31.758Z,6.35
2019-01-14T12:16:31.746Z,6.45
2019-01-14T12:17:31.774Z,6.35
2019-01-14T12:18:31.730Z,6.33
2019-01-14T12:19:31.700Z,6.36
2019-01-14T12:20:31.701Z,6.44
2019-01-14T12:21:31.698Z,6.46
2019-01-14T12:22:31.676Z,6.46
2019-01-14T12:23:31.688Z,6.39
2019-01-14T12:24:31.666Z,6.46
2019-01-14T12:25:31.635Z,6.36
2019-01-14T12:26:31.637Z,6.36
2019-01-14T12:27:31.632Z,6.33
2019-01-14T12:28:31.638Z,6.28
2019-01-14T12:29:31.630Z,6.27
2019-01-14T12:30:31.629Z,6.26
2019-01-14T12:31:31.615Z,6.14
2019-01-14T12:32:31.576Z,6.19
2019-01-14T12:33:31.561Z,6.12
2019-01-14T12:34:31.556Z,6.16
2019-01-14T12:35:31.555Z,6.07
2019-01-14T12:36:31.558Z,6.08
2019-01-14T12:37:31.539Z,6.02
2019-01-14T12:38:31.504Z,5.93
2019-01-14T12:39:31.506Z,5.89
2019-01-14T12:40:31.497Z,5.87
2019-01-14T12:41:31.481Z,5.71
2019-01-14T12:42:31.497Z,5.79
2019-01-14T12:43:31.448Z,5.80
2019-01-14T12:44:31.439Z,5.83
2019-01-14T12:45:31.424Z,5.80
2019-01-14T12:46:31.442Z,5.82
2019-01-14T12:47:31.420Z,5.83
2019-01-14T12:48:31.437Z,5.80
2019-01-14T12:49:31.391Z,5.80
2019-01-14T12:50:31.388Z,5.79
2019-01-14T12:51:31.358Z,5.82
2019-01-14T12:52:31.351Z,5.89
2019-01-14T12:53:31.347Z,5.90
2019-01-14T12:54:31.369Z,5.93
2019-01-14T12:55:31.418Z,5.94
2019-01-14T12:56:31.313Z,6.20
2019-01-14T12:57:31.299Z,6.16
2019-01-14T12:58:31.288Z,6.17
2019-01-14T12:59:31.285Z,6.12
2019-01-14T13:00:31.306Z,6.16
2019-01-14T13:01:31.267Z,6.22
2019-01-14T13:02:31.383Z,6.11
2019-01-14T13:03:31.320Z,6.11
2019-01-14T13:04:31.223Z,6.04
2019-01-14T13:05:31.216Z,5.98
2019-01-14T13:06:31.231Z,5.93
2019-01-14T13:07:31.204Z,5.87
2019-01-14T13:08:31.194Z,5.87
2019-01-14T13:09:31.172Z,5.80
2019-01-14T13:10:31.194Z,5.73
2019-01-14T13:11:31.157Z,5.76
2019-01-14T13:12:31.160Z,5.73
2019-01-14T13:13:31.137Z,5.90
2019-01-14T13:14:31.143Z,5.99
2019-01-14T13:15:31.108Z,6.12
2019-01-14T13:16:31.125Z,6.16